Time;durP1;ratioP1;P1;durP2;ratioP2;P2;SDS_P1;SDS_P2;PMS_P1;PMS_P2;Temp;Humidity;BMP_temperature;BMP_pressure;BME280_temperature;BME280_humidity;BME280_pressure;Samples;Min_cycle;Max_cycle;Signal;HPM_P1;HPM_P2
2021/08/24 00:00:04;;;;;;;6.28;3.45;;;;;;;17.14;75.83;100529.25;815577;54;20683;-77
2021/08/24 00:00:50;;;;;;;6.72;3.42;;;;;;;17.11;75.50;100535.03;815605;47;20059;-77
2021/08/24 00:01:42;;;;;;;4.60;3.17;;;;;;;17.11;75.87;100528.78;815407;46;20803;-76
2021/08/24 00:02:28;;;;;;;5.75;3.70;;;;;;;17.11;75.90;100531.47;815635;54;20018;-78
2021/08/24 00:03:17;;;;;;;5.43;3.30;;;;;;;17.08;75.88;100531.84;815509;54;20034;-76
2021/08/24 00:04:03;;;;;;;5.13;3.42;;;;;;;17.06;75.63;100533.88;815487;47;20090;-78
2021/08/24 00:04:51;;;;;;;6.05;3.75;;;;;;;17.09;75.67;100528.13;815613;54;20034;-79
2021/08/24 00:05:38;;;;;;;4.70;3.20;;;;;;;17.09;75.74;100536.22;815638;46;20030;-78
2021/08/24 00:06:26;;;;;;;5.07;3.30;;;;;;;17.05;75.91;100533.00;815577;47;20042;-77
2021/08/24 00:07:12;;;;;;;5.60;3.90;;;;;;;17.03;75.94;100539.63;815575;54;20102;-76
2021/08/24 00:07:59;;;;;;;7.30;4.30;;;;;;;16.93;76.09;100532.56;815600;54;20031;-78
2021/08/24 00:08:47;;;;;;;6.60;3.67;;;;;;;16.91;76.19;100537.25;815409;54;20038;-77
2021/08/24 00:09:34;;;;;;;5.32;3.80;;;;;;;16.87;76.33;100533.25;815248;47;20062;-77
2021/08/24 00:10:21;;;;;;;4.80;3.50;;;;;;;16.90;75.88;100535.59;815422;46;20034;-77
2021/08/24 00:11:11;;;;;;;5.10;3.78;;;;;;;16.88;76.17;100534.94;815309;54;20034;-76
2021/08/24 00:11:57;;;;;;;4.40;3.10;;;;;;;16.89;76.00;100531.22;815614;54;20035;-78
2021/08/24 00:12:43;;;;;;;5.40;3.83;;;;;;;16.88;75.80;100534.94;815567;54;20799;-77
2021/08/24 00:13:32;;;;;;;5.25;3.40;;;;;;;16.92;75.98;100538.13;815521;54;20042;-79
2021/08/24 00:14:18;;;;;;;6.20;3.58;;;;;;;16.90;75.94;100535.59;815593;54;20094;-79
2021/08/24 00:15:08;;;;;;;4.70;3.40;;;;;;;16.86;76.15;100539.66;815678;54;20034;-77
2021/08/24 00:15:55;;;;;;;5.93;3.42;;;;;;;16.86;75.79;100538.81;815307;46;20098;-77
2021/08/24 00:16:47;;;;;;;6.78;3.35;;;;;;;16.86;75.82;100538.81;815548;54;20805;-78
2021/08/24 00:17:33;;;;;;;5.50;3.55;;;;;;;16.82;75.97;100535.59;815521;54;20039;-77
2021/08/24 00:18:22;;;;;;;4.82;3.53;;;;;;;16.83;75.94;100540.00;815665;54;20083;-78
2021/08/24 00:19:08;;;;;;;4.65;3.38;;;;;;;16.81;76.14;100532.06;815581;47;20054;-78
2021/08/24 00:19:57;;;;;;;5.18;3.20;;;;;;;16.84;76.06;100541.69;815526;54;20035;-76
2021/08/24 00:20:46;;;;;;;6.93;3.28;;;;;;;16.82;76.08;100536.47;815546;54;21046;-78
2021/08/24 00:21:36;;;;;;;4.43;3.08;;;;;;;16.82;75.78;100532.91;815524;46;20054;-76
2021/08/24 00:22:22;;;;;;;4.57;3.05;;;;;;;16.81;76.00;100534.78;815618;54;20115;-79
2021/08/24 00:23:14;;;;;;;4.78;3.63;;;;;;;16.82;75.95;100538.31;815584;47;20051;-79
2021/08/24 00:24:00;;;;;;;5.70;2.90;;;;;;;16.79;75.86;100535.97;815579;47;20059;-76
2021/08/24 00:24:48;;;;;;;5.88;3.53;;;;;;;16.80;75.48;100534.97;815553;47;20055;-77
2021/08/24 00:25:35;;;;;;;4.47;3.00;;;;;;;16.78;75.57;100536.97;815457;47;20034;-76
2021/08/24 00:26:24;;;;;;;4.95;3.58;;;;;;;16.78;75.64;100537.81;815445;54;20030;-77
2021/08/24 00:27:10;;;;;;;5.32;3.47;;;;;;;16.80;75.76;100534.97;815552;54;20110;-79
2021/08/24 00:27:58;;;;;;;5.05;3.13;;;;;;;16.76;75.76;100530.91;815570;54;20042;-77
2021/08/24 00:28:44;;;;;;;4.63;3.10;;;;;;;16.76;75.63;100530.91;815490;54;20070;-77
2021/08/24 00:29:33;;;;;;;4.93;3.13;;;;;;;16.77;75.45;100530.72;822596;31;20863;-77
2021/08/24 00:30:19;;;;;;;4.38;3.03;;;;;;;16.79;75.32;100533.28;815475;54;20062;-77
2021/08/24 00:31:07;;;;;;;5.43;3.25;;;;;;;16.80;75.44;100534.97;815547;54;20730;-76
2021/08/24 00:31:56;;;;;;;4.50;3.00;;;;;;;16.76;75.48;100539.00;815482;54;20094;-77
2021/08/24 00:32:44;;;;;;;5.00;3.25;;;;;;;16.78;75.59;100539.69;815618;54;20116;-76
2021/08/24 00:33:30;;;;;;;4.97;2.80;;;;;;;16.80;75.57;100532.25;815551;47;20812;-77
2021/08/24 00:34:19;;;;;;;4.32;2.78;;;;;;;16.82;75.22;100538.31;815581;47;20031;-77
2021/08/24 00:35:06;;;;;;;4.28;2.92;;;;;;;16.79;75.40;100528.69;815353;54;20093;-77
2021/08/24 00:35:54;;;;;;;4.20;2.80;;;;;;;16.73;75.23;100534.81;815369;54;20046;-76
2021/08/24 00:36:40;;;;;;;4.78;3.15;;;;;;;16.74;75.23;100535.63;815478;54;20038;-77
2021/08/24 00:37:29;;;;;;;5.03;2.80;;;;;;;16.74;75.18;100531.09;815608;47;20037;-77
2021/08/24 00:38:18;;;;;;;4.10;2.72;;;;;;;16.73;75.12;100533.94;815461;54;20034;-77
2021/08/24 00:39:06;;;;;;;5.20;3.17;;;;;;;16.72;75.43;100535.81;815553;54;20059;-78
2021/08/24 00:39:53;;;;;;;4.50;3.20;;;;;;;16.68;75.59;100535.31;815559;54;20139;-77
2021/08/24 00:40:42;;;;;;;4.72;3.60;;;;;;;16.66;75.67;100534.66;815490;54;20090;-77
2021/08/24 00:41:28;;;;;;;4.95;3.20;;;;;;;16.64;75.52;100535.84;815510;54;20046;-78
2021/08/24 00:42:18;;;;;;;6.05;3.40;;;;;;;16.60;75.78;100535.34;815245;47;20095;-77
2021/08/24 00:43:06;;;;;;;4.78;3.30;;;;;;;16.58;75.71;100534.69;815657;54;20114;-77
2021/08/24 00:43:55;;;;;;;5.00;2.92;;;;;;;16.59;75.52;100544.47;815480;47;20030;-77
2021/08/24 00:44:42;;;;;;;5.70;3.00;;;;;;;16.55;75.98;100534.19;815503;54;20124;-78
2021/08/24 00:45:30;;;;;;;5.65;3.40;;;;;;;16.50;75.96;100540.94;815556;54;20035;-78
2021/08/24 00:46:28;;;;;;;4.95;3.33;;;;;;;16.50;76.21;100540.09;817468;39;20706;-78
2021/08/24 00:47:25;;;;;;;5.10;3.30;;;;;;;16.49;75.91;100544.63;815557;54;20035;-76
2021/08/24 00:48:11;;;;;;;4.05;2.63;;;;;;;16.54;75.99;100541.41;815573;46;20030;-78
2021/08/24 00:49:02;;;;;;;5.60;2.70;;;;;;;16.53;75.80;100539.75;815641;54;20059;-79
2021/08/24 00:49:49;;;;;;;5.10;3.05;;;;;;;16.50;76.04;100534.69;815576;54;20050;-77
2021/08/24 00:50:41;;;;;;;4.18;2.75;;;;;;;16.50;76.34;100538.22;815522;47;20055;-77
2021/08/24 00:51:30;;;;;;;4.80;3.50;;;;;;;16.48;76.19;100536.72;815479;54;20041;-78
2021/08/24 00:52:21;;;;;;;4.50;3.22;;;;;;;16.47;76.38;100535.03;815525;54;20100;-78
2021/08/24 00:53:10;;;;;;;5.25;3.85;;;;;;;16.45;76.32;100537.06;815568;46;20042;-77
2021/08/24 00:53:59;;;;;;;4.63;3.17;;;;;;;16.48;76.48;100531.31;815586;54;20031;-77
2021/08/24 00:54:46;;;;;;;5.07;3.42;;;;;;;16.49;76.12;100538.41;815445;54;20038;-76
2021/08/24 00:55:35;;;;;;;5.28;3.60;;;;;;;16.48;76.52;100542.13;815639;54;20042;-77
2021/08/24 00:56:22;;;;;;;5.35;3.42;;;;;;;16.46;76.34;100534.19;815395;54;20058;-77
2021/08/24 00:57:14;;;;;;;5.97;4.10;;;;;;;16.37;76.95;100530.66;815533;47;20848;-78
2021/08/24 00:58:06;;;;;;;6.47;3.90;;;;;;;16.32;77.06;100538.44;815491;46;20035;-76
2021/08/24 00:58:55;;;;;;;5.10;3.78;;;;;;;16.36;76.85;100528.97;815322;47;20041;-77
2021/08/24 00:59:41;;;;;;;5.05;3.63;;;;;;;16.42;76.59;100537.41;815585;47;20030;-76
2021/08/24 01:00:31;;;;;;;5.13;3.58;;;;;;;16.42;76.68;100532.84;815543;47;20038;-76
2021/08/24 01:01:17;;;;;;;5.47;3.47;;;;;;;16.38;76.72;100531.53;815440;47;20034;-77
2021/08/24 01:02:07;;;;;;;5.10;3.53;;;;;;;16.33;77.07;100532.03;815590;54;20034;-77
2021/08/24 01:02:57;;;;;;;7.78;3.47;;;;;;;16.30;76.92;100537.75;815524;47;20035;-76
2021/08/24 01:03:48;;;;;;;;;;;;;;;16.14;77.69;100535.91;815619;54;20086;-76
2021/08/24 01:04:33;;;;;;;;;;;;;;;15.99;78.24;100543.00;815644;54;19991;-76
2021/08/24 01:05:22;;;;;;;5.00;3.50;;;;;;;16.00;78.05;100529.34;817545;39;20598;-77
2021/08/24 01:06:17;;;;;;;5.13;3.38;;;;;;;16.01;78.19;100536.44;815418;47;20090;-77
2021/08/24 01:07:11;;;;;;;7.50;3.70;;;;;;;16.04;77.95;100536.09;815552;47;20090;-77
2021/08/24 01:08:06;;;;;;;5.75;3.88;;;;;;;16.03;77.55;100534.41;815529;47;20769;-77
2021/08/24 01:09:04;;;;;;;6.22;3.17;;;;;;;16.05;77.73;100537.78;815539;47;20036;-77
2021/08/24 01:09:56;;;;;;;4.50;3.13;;;;;;;16.03;77.88;100538.94;815535;54;20124;-77
2021/08/24 01:10:51;;;;;;;6.15;3.30;;;;;;;16.00;77.99;100540.13;815511;54;20035;-77
2021/08/24 01:11:47;;;;;;;5.47;3.60;;;;;;;16.00;77.95;100537.44;815524;54;20144;-76
2021/08/24 01:12:41;;;;;;;5.95;3.80;;;;;;;16.01;77.58;100532.91;815442;54;20064;-78
2021/08/24 01:13:35;;;;;;;5.65;2.97;;;;;;;16.01;77.73;100543.69;815585;47;20054;-76
2021/08/24 01:14:34;;;;;;;4.90;3.22;;;;;;;16.00;77.59;100537.44;815401;54;20042;-77
2021/08/24 01:15:30;;;;;;;5.32;3.15;;;;;;;15.97;77.76;100535.06;818227;39;20118;-78
2021/08/24 01:16:28;;;;;;;4.85;3.35;;;;;;;15.91;78.11;100533.06;815507;47;20038;-78
2021/08/24 01:17:17;;;;;;;5.75;3.40;;;;;;;15.95;78.10;100539.81;818944;39;20709;-77
2021/08/24 01:18:13;;;;;;;4.78;3.05;;;;;;;15.98;77.88;100533.22;815477;54;20034;-77
2021/08/24 01:19:24;;;;;;;5.45;3.40;;;;;;;15.89;78.21;100535.06;815562;54;20058;-77
2021/08/24 01:20:29;;;;;;;5.35;3.70;;;;;;;15.83;78.38;100541.09;815463;54;20061;-77
2021/08/24 01:21:46;;;;;;;6.47;3.20;;;;;;;15.81;78.31;100540.44;815137;46;20158;-76
2021/08/24 01:23:05;;;;;;;6.57;3.50;;;;;;;15.77;78.62;100533.69;815434;54;20031;-77
2021/08/24 01:23:57;;;;;;;9.07;3.92;;;;;;;15.75;78.33;100536.53;817783;39;20772;-77
2021/08/24 01:24:49;;;;;;;5.28;3.25;;;;;;;15.74;78.27;100541.09;815525;54;20069;-77
2021/08/24 01:25:41;;;;;;;5.82;3.45;;;;;;;15.77;78.11;100541.78;815580;47;20038;-78
2021/08/24 01:26:37;;;;;;;6.18;3.53;;;;;;;15.75;78.46;100545.50;815479;46;20754;-78
2021/08/24 01:27:33;;;;;;;5.43;3.47;;;;;;;15.75;78.56;100545.50;815521;54;20038;-77
2021/08/24 01:28:27;;;;;;;6.72;3.30;;;;;;;15.78;78.03;100546.13;815562;47;20034;-77
2021/08/24 01:29:40;;;;;;;5.68;3.58;;;;;;;15.78;78.32;100540.75;815544;54;20034;-77
2021/08/24 01:30:48;;;;;;;5.20;3.63;;;;;;;15.68;78.61;100541.75;815516;47;20018;-78
2021/08/24 01:31:57;;;;;;;6.28;3.92;;;;;;;15.69;78.60;100542.59;815298;54;20041;-77
2021/08/24 01:33:21;;;;;;;6.75;3.05;;;;;;;15.67;78.65;100545.47;815548;46;20818;-76
2021/08/24 01:34:24;;;;;;;4.57;3.30;;;;;;;15.68;78.34;100541.75;815383;54;20055;-76
2021/08/24 01:35:27;;;;;;;4.65;2.90;;;;;;;15.71;78.22;100541.44;815599;47;20014;-77
2021/08/24 01:36:23;;;;;;;4.25;2.58;;;;;;;15.74;78.21;100545.63;815397;47;20061;-76
2021/08/24 01:37:13;;;;;;;5.15;2.90;;;;;;;15.77;78.12;100541.78;815564;54;20062;-77
2021/08/24 01:38:14;;;;;;;4.43;2.92;;;;;;;15.77;78.32;100539.09;815537;54;20034;-76
2021/08/24 01:39:56;;;;;;;4.57;2.92;;;;;;;15.84;77.92;100545.53;814422;54;20038;-78
2021/08/24 01:40:49;;;;;;;4.93;3.05;;;;;;;15.87;77.96;100539.81;814288;54;20077;-78
2021/08/24 01:41:58;;;;;;;4.32;2.78;;;;;;;15.84;78.14;100540.13;814314;54;20049;-78
2021/08/24 01:42:46;;;;;;;3.92;2.42;;;;;;;15.85;77.88;100541.81;814237;54;20039;-79
2021/08/24 01:43:42;;;;;;;4.28;2.90;;;;;;;15.85;78.02;100541.81;814077;47;20698;-78
2021/08/24 01:44:33;;;;;;;4.63;2.70;;;;;;;15.84;77.83;100540.97;814503;54;20063;-78
2021/08/24 01:45:27;;;;;;;4.70;2.78;;;;;;;15.84;78.19;100540.13;814585;54;20923;-78
2021/08/24 01:46:20;;;;;;;5.35;3.72;;;;;;;15.85;77.79;100541.81;814413;39;20497;-79
2021/08/24 01:47:18;;;;;;;4.95;3.25;;;;;;;15.82;77.71;100542.13;813935;47;20084;-78
2021/08/24 01:48:09;;;;;;;4.50;3.30;;;;;;;15.79;77.96;100537.03;814245;54;20047;-79
2021/08/24 01:49:02;;;;;;;5.82;3.72;;;;;;;15.73;77.71;100543.94;813823;47;20156;-78
2021/08/24 01:49:55;;;;;;;4.90;2.90;;;;;;;15.69;77.83;100542.59;814127;47;20030;-78
2021/08/24 01:50:50;;;;;;;5.38;3.60;;;;;;;15.58;77.73;100539.22;814224;47;20042;-78
2021/08/24 01:51:43;;;;;;;4.65;3.22;;;;;;;15.59;77.89;100548.13;813780;47;20046;-79
2021/08/24 01:52:36;;;;;;;4.25;3.13;;;;;;;15.55;78.00;100538.72;814006;47;20038;-78
2021/08/24 01:53:27;;;;;;;5.47;3.25;;;;;;;15.54;77.77;100539.72;814079;54;20071;-78
2021/08/24 01:54:22;;;;;;;5.47;3.40;;;;;;;15.52;77.91;100547.13;814113;54;20042;-78
2021/08/24 01:55:12;;;;;;;4.50;3.28;;;;;;;15.47;77.65;100549.47;814160;54;20585;-79
2021/08/24 01:56:06;;;;;;;5.32;3.42;;;;;;;15.43;78.03;100544.41;814143;54;20141;-78
2021/08/24 01:56:53;;;;;;;6.15;3.03;;;;;;;15.47;78.04;100544.09;813847;47;20046;-78
2021/08/24 01:57:48;;;;;;;5.57;3.00;;;;;;;15.47;78.00;100549.47;814525;54;20126;-78
2021/08/24 01:58:41;;;;;;;5.22;3.25;;;;;;;15.43;77.92;100551.66;813906;47;20047;-78
2021/08/24 01:59:36;;;;;;;4.97;3.08;;;;;;;15.46;77.85;100550.47;814109;47;20034;-78
2021/08/24 02:00:23;;;;;;;5.45;3.10;;;;;;;15.49;77.78;100553.69;813878;54;20116;-79
2021/08/24 02:01:16;;;;;;;5.38;3.13;;;;;;;15.51;77.58;100542.72;814475;54;20060;-79
2021/08/24 02:02:06;;;;;;;5.10;3.00;;;;;;;15.50;78.02;100549.97;813904;47;20584;-78
2021/08/24 02:03:00;;;;;;;4.55;2.58;;;;;;;15.52;77.70;100547.13;813961;47;20042;-78
2021/08/24 02:03:51;;;;;;;4.80;2.97;;;;;;;15.51;77.74;100556.19;813973;47;20046;-78
2021/08/24 02:04:47;;;;;;;4.55;2.95;;;;;;;15.49;77.89;100552.84;815861;39;21487;-79
2021/08/24 02:05:41;;;;;;;4.40;2.92;;;;;;;15.47;78.08;100552.16;814433;54;20084;-79
2021/08/24 02:06:34;;;;;;;4.70;2.78;;;;;;;15.47;77.80;100554.84;814158;54;20034;-78
2021/08/24 02:07:25;;;;;;;5.18;3.25;;;;;;;15.47;77.96;100553.00;814072;47;20809;-78
2021/08/24 02:08:18;;;;;;;5.18;2.88;;;;;;;15.47;77.69;100550.31;813928;47;20034;-78
2021/08/24 02:09:08;;;;;;;6.78;3.10;;;;;;;15.48;77.87;100559.25;813617;54;20038;-78
2021/08/24 02:10:01;;;;;;;4.32;2.80;;;;;;;15.48;77.71;100551.16;814418;54;20557;-78
2021/08/24 02:10:50;;;;;;;4.60;3.00;;;;;;;15.45;78.10;100552.31;813717;47;20053;-79
2021/08/24 02:11:41;;;;;;;5.10;2.95;;;;;;;15.48;78.01;100548.47;814302;39;21165;-78
2021/08/24 02:12:32;;;;;;;4.30;2.60;;;;;;;15.48;77.79;100556.56;814200;54;20070;-79
2021/08/24 02:13:24;;;;;;;4.25;2.58;;;;;;;15.48;77.91;100554.69;814100;47;20046;-78
2021/08/24 02:14:14;;;;;;;4.47;2.80;;;;;;;15.47;77.62;100550.31;813584;54;20094;-79
2021/08/24 02:15:04;;;;;;;4.00;2.58;;;;;;;15.47;77.69;100549.47;814354;54;20038;-78
2021/08/24 02:15:55;;;;;;;5.68;3.10;;;;;;;15.44;78.05;100551.47;814295;54;20046;-78
2021/08/24 02:16:46;;;;;;;4.00;2.55;;;;;;;15.49;77.75;100553.69;814080;47;20034;-78
2021/08/24 02:17:34;;;;;;;6.50;2.95;;;;;;;15.52;77.54;100552.50;814674;54;20042;-79
2021/08/24 02:18:28;;;;;;;6.40;3.15;;;;;;;15.52;77.47;100557.91;813581;47;20102;-78
2021/08/24 02:19:27;;;;;;;4.80;2.53;;;;;;;15.48;77.54;100551.16;813870;47;20042;-78
2021/08/24 02:20:20;;;;;;;5.03;2.90;;;;;;;15.49;77.50;100550.16;814065;47;20050;-79
2021/08/24 02:21:11;;;;;;;5.18;3.03;;;;;;;15.48;77.69;100552.00;814431;54;20047;-79
2021/08/24 02:22:05;;;;;;;4.70;2.92;;;;;;;15.44;77.71;100548.78;814644;39;20446;-78
2021/08/24 02:22:59;;;;;;;6.18;3.00;;;;;;;15.44;77.79;100546.09;813854;47;20071;-79
2021/08/24 02:23:52;;;;;;;4.90;3.08;;;;;;;15.44;78.11;100556.03;814308;39;21821;-78
2021/08/24 02:24:45;;;;;;;6.25;3.20;;;;;;;15.42;78.06;100553.50;813778;47;20110;-78
2021/08/24 02:25:36;;;;;;;5.05;3.08;;;;;;;15.43;78.13;100548.97;814064;54;20073;-78
2021/08/24 02:26:25;;;;;;;5.05;3.22;;;;;;;15.43;78.11;100552.50;816528;39;20569;-79
2021/08/24 02:27:19;;;;;;;6.68;3.10;;;;;;;15.45;77.87;100546.91;813996;47;20039;-78
2021/08/24 02:28:10;;;;;;;5.70;3.40;;;;;;;15.40;78.36;100544.72;814336;54;20069;-78
2021/08/24 02:29:00;;;;;;;5.57;3.08;;;;;;;15.43;78.13;100547.09;813800;47;21039;-78
2021/08/24 02:29:46;;;;;;;;;;;;;;;15.28;78.56;100540.66;814303;47;20185;-79
2021/08/24 02:30:38;;;;;;;4.30;2.90;;;;;;;15.32;78.50;100546.56;814008;54;19947;-78
2021/08/24 02:31:29;;;;;;;3.90;2.53;;;;;;;15.37;78.39;100541.50;814097;54;20130;-78
2021/08/24 02:32:22;;;;;;;4.88;2.85;;;;;;;15.37;78.34;100539.69;818221;39;20884;-78
2021/08/24 02:33:10;;;;;;;4.63;2.85;;;;;;;15.39;78.38;100543.06;814246;54;20046;-78
2021/08/24 02:34:08;;;;;;;4.63;2.72;;;;;;;15.39;78.12;100540.38;813871;54;20034;-78
2021/08/24 02:34:58;;;;;;;5.03;2.75;;;;;;;15.42;77.85;100541.88;813905;47;20039;-78
2021/08/24 02:35:55;;;;;;;4.88;3.10;;;;;;;15.39;78.00;100543.06;814540;39;20570;-78
2021/08/24 02:36:50;;;;;;;5.82;3.53;;;;;;;15.33;77.97;100542.88;813898;54;20058;-79
2021/08/24 02:37:45;;;;;;;9.10;3.83;;;;;;;15.28;78.48;100551.44;814564;54;20046;-79
2021/08/24 02:38:37;;;;;;;6.47;3.38;;;;;;;15.22;78.37;100546.69;814599;54;20046;-78
2021/08/24 02:39:31;;;;;;;5.28;3.45;;;;;;;15.20;78.44;100544.16;813596;47;20055;-78
2021/08/24 02:40:24;;;;;;;5.55;3.25;;;;;;;15.20;78.42;100543.34;814053;47;20039;-78
2021/08/24 02:41:19;;;;;;;5.07;3.72;;;;;;;15.11;78.76;100545.97;814254;54;20068;-79
2021/08/24 02:42:12;;;;;;;6.85;3.80;;;;;;;15.05;79.08;100556.56;813614;47;20039;-78
2021/08/24 02:43:11;;;;;;;6.93;4.03;;;;;;;15.02;79.39;100552.31;814299;54;20042;-78
2021/08/24 02:44:05;;;;;;;5.13;3.65;;;;;;;14.98;79.13;100545.59;814195;47;20076;-79
2021/08/24 02:44:59;;;;;;;5.10;3.60;;;;;;;14.91;79.37;100547.25;813918;47;21000;-78
2021/08/24 02:45:52;;;;;;;6.80;3.50;;;;;;;14.92;79.32;100540.88;813990;54;20145;-78
2021/08/24 02:46:47;;;;;;;5.45;3.70;;;;;;;14.95;79.25;100545.91;814203;47;20085;-78
2021/08/24 02:47:34;;;;;;;5.13;3.60;;;;;;;14.96;79.19;100542.22;814378;54;20035;-79
2021/08/24 02:48:24;;;;;;;5.03;3.22;;;;;;;14.99;79.18;100547.28;813898;47;20094;-78
2021/08/24 02:49:16;;;;;;;4.88;3.20;;;;;;;14.97;78.99;100538.53;813939;54;20039;-78
2021/08/24 02:50:07;;;;;;;4.88;3.15;;;;;;;14.97;79.00;100538.53;813916;47;20064;-78
2021/08/24 02:50:54;;;;;;;5.13;3.05;;;;;;;14.98;79.25;100540.22;814214;47;20059;-78
2021/08/24 02:51:44;;;;;;;5.03;3.50;;;;;;;15.03;78.99;100535.19;814160;47;20042;-79
2021/08/24 02:52:32;;;;;;;4.47;2.92;;;;;;;15.00;79.02;100537.34;814168;39;20507;-77
2021/08/24 02:53:22;;;;;;;6.30;3.00;;;;;;;15.03;78.75;100537.88;814701;54;20035;-78
2021/08/24 02:54:15;;;;;;;4.65;2.83;;;;;;;15.02;78.80;100536.19;814179;54;20073;-78
2021/08/24 02:55:05;;;;;;;6.28;3.35;;;;;;;15.05;78.60;100546.63;814146;47;20966;-78
2021/08/24 02:55:52;;;;;;;5.40;2.90;;;;;;;15.05;78.50;100540.41;814642;54;20046;-78
2021/08/24 02:56:40;;;;;;;5.80;3.40;;;;;;;14.98;78.92;100540.22;815664;39;20505;-78
2021/08/24 02:57:27;;;;;;;4.65;3.05;;;;;;;14.98;78.65;100534.84;814643;54;20145;-79
2021/08/24 02:58:15;;;;;;;4.78;3.35;;;;;;;14.96;78.68;100542.22;814593;54;20616;-78
2021/08/24 02:59:01;;;;;;;7.93;4.10;;;;;;;14.96;78.99;100539.53;814002;47;20072;-78
2021/08/24 02:59:50;;;;;;;5.63;3.50;;;;;;;14.96;78.89;100531.44;813968;54;20042;-78
2021/08/24 03:00:36;;;;;;;6.05;3.20;;;;;;;14.95;78.82;100533.31;814353;39;20512;-78
2021/08/24 03:01:24;;;;;;;5.05;3.20;;;;;;;14.99;78.77;100531.13;814113;54;20042;-78
2021/08/24 03:02:12;;;;;;;4.43;2.80;;;;;;;14.98;78.52;100532.13;814348;39;20444;-77
2021/08/24 03:03:01;;;;;;;5.00;3.17;;;;;;;15.00;78.39;100534.66;813990;54;20061;-79
2021/08/24 03:03:47;;;;;;;5.47;3.20;;;;;;;14.95;78.57;100543.22;814460;54;20043;-78
2021/08/24 03:04:36;;;;;;;5.28;3.50;;;;;;;14.93;78.57;100537.16;814308;54;20056;-79
2021/08/24 03:05:23;;;;;;;9.05;3.60;;;;;;;14.92;78.61;100532.78;815606;39;20470;-78
2021/08/24 03:06:11;;;;;;;6.20;3.65;;;;;;;14.87;78.84;100538.66;814403;39;20134;-78
2021/08/24 03:07:04;;;;;;;6.00;3.20;;;;;;;14.86;78.60;100541.50;814675;54;20060;-79
2021/08/24 03:07:52;;;;;;;4.88;3.35;;;;;;;14.82;78.59;100532.91;814536;54;20041;-80
2021/08/24 03:08:39;;;;;;;4.63;3.03;;;;;;;14.84;78.63;100541.66;814725;47;20054;-79
2021/08/24 03:09:34;;;;;;;5.65;3.10;;;;;;;14.84;78.64;100540.81;814495;47;20049;-78
2021/08/24 03:10:23;;;;;;;5.22;3.10;;;;;;;14.84;78.71;100532.72;814470;47;20039;-78
2021/08/24 03:11:17;;;;;;;5.70;2.80;;;;;;;14.84;78.73;100535.41;814635;54;20076;-79
2021/08/24 03:12:19;;;;;;;6.13;2.67;;;;;;;14.84;78.87;100538.97;814398;47;20038;-77
2021/08/24 03:13:16;;;;;;;4.28;2.72;;;;;;;14.87;78.74;100532.41;814544;47;20053;-78
2021/08/24 03:14:08;;;;;;;4.25;2.83;;;;;;;14.88;78.54;100534.94;814691;47;20029;-78
2021/08/24 03:15:02;;;;;;;5.72;3.55;;;;;;;14.81;79.00;100534.75;814757;47;20042;-78
2021/08/24 03:15:53;;;;;;;7.32;3.78;;;;;;;14.81;78.92;100537.47;814902;47;20034;-78
2021/08/24 03:16:45;;;;;;;4.88;3.53;;;;;;;14.81;78.67;100533.91;815131;54;20039;-79
2021/08/24 03:17:38;;;;;;;5.35;3.38;;;;;;;14.80;78.75;100535.75;814718;47;20073;-78
2021/08/24 03:18:32;;;;;;;4.40;3.30;;;;;;;14.81;78.70;100533.91;818039;39;20457;-78
2021/08/24 03:19:22;;;;;;;5.10;2.83;;;;;;;14.82;78.63;100532.91;814908;54;20067;-78
2021/08/24 03:20:13;;;;;;;;;;;;;;;14.68;79.17;100531.66;814977;54;20035;-78
2021/08/24 03:21:05;;;;;;;7.82;3.38;;;;;;;14.72;79.25;100530.34;815010;47;19922;-78
2021/08/24 03:21:56;;;;;;;4.00;2.50;;;;;;;14.78;79.07;100534.25;814911;47;20080;-78
2021/08/24 03:22:44;;;;;;;5.63;3.05;;;;;;;14.80;78.55;100534.91;815085;47;20034;-78
2021/08/24 03:23:34;;;;;;;5.38;2.58;;;;;;;14.79;78.78;100531.38;814871;47;20034;-79
2021/08/24 03:24:20;;;;;;;4.65;3.05;;;;;;;14.77;79.00;100530.69;815628;54;20039;-78
2021/08/24 03:25:13;;;;;;;5.60;2.78;;;;;;;14.78;78.84;100539.63;815384;54;20027;-78
2021/08/24 03:26:01;;;;;;;5.85;3.13;;;;;;;14.79;78.89;100531.38;815643;54;20051;-78
2021/08/24 03:26:51;;;;;;;6.35;3.10;;;;;;;14.81;78.87;100540.16;815515;47;20105;-78
2021/08/24 03:27:41;;;;;;;4.97;2.65;;;;;;;14.82;78.66;100531.06;815661;54;20063;-78
2021/08/24 03:28:36;;;;;;;4.05;2.47;;;;;;;14.83;78.76;100545.34;815476;46;20034;-78
2021/08/24 03:29:23;;;;;;;4.20;2.63;;;;;;;14.88;78.38;100539.50;815240;47;20038;-78
2021/08/24 03:30:16;;;;;;;4.32;2.20;;;;;;;14.89;78.25;100541.19;815460;47;20046;-78
2021/08/24 03:31:02;;;;;;;4.55;2.58;;;;;;;14.89;78.28;100541.19;815307;46;20039;-78
2021/08/24 03:31:55;;;;;;;4.43;2.80;;;;;;;14.90;78.35;100540.19;815123;54;20042;-78
2021/08/24 03:32:43;;;;;;;4.85;2.42;;;;;;;14.90;78.19;100540.19;815296;47;20034;-78
2021/08/24 03:33:31;;;;;;;4.75;2.65;;;;;;;14.92;78.31;100541.69;815383;54;20051;-80
2021/08/24 03:34:17;;;;;;;4.40;2.60;;;;;;;14.93;78.05;100542.53;815347;47;20039;-79
2021/08/24 03:35:08;;;;;;;5.32;2.80;;;;;;;14.93;78.19;100545.22;815279;47;20034;-78
2021/08/24 03:35:54;;;;;;;4.95;2.97;;;;;;;14.90;78.27;100543.72;815126;47;20046;-78
2021/08/24 03:36:42;;;;;;;5.38;3.03;;;;;;;14.91;78.25;100539.19;815202;46;20034;-78
2021/08/24 03:37:28;;;;;;;3.95;2.50;;;;;;;14.91;78.09;100547.25;815212;47;20052;-79
2021/08/24 03:38:17;;;;;;;4.47;2.80;;;;;;;14.89;78.08;100538.50;815234;47;20034;-78
2021/08/24 03:39:04;;;;;;;4.88;2.90;;;;;;;14.90;78.17;100537.50;815251;47;20052;-79
2021/08/24 03:39:52;;;;;;;5.05;3.13;;;;;;;14.91;78.09;100539.19;814894;54;20979;-78
2021/08/24 03:40:41;;;;;;;4.72;3.03;;;;;;;14.91;77.99;100536.50;815269;54;20046;-79
2021/08/24 03:41:31;;;;;;;4.32;2.85;;;;;;;14.91;77.99;100536.50;815284;47;20046;-79
2021/08/24 03:42:17;;;;;;;3.97;2.55;;;;;;;14.91;77.99;100536.50;815400;47;20046;-79
2021/08/24 03:43:06;;;;;;;5.47;3.10;;;;;;;14.92;77.92;100533.63;815114;54;20120;-78
2021/08/24 03:43:52;;;;;;;6.72;3.20;;;;;;;14.89;77.94;100541.19;815102;47;20034;-78
2021/08/24 03:44:43;;;;;;;5.18;3.03;;;;;;;14.90;78.17;100537.50;815268;54;20060;-78
2021/08/24 03:45:30;;;;;;;5.85;3.80;;;;;;;14.86;78.16;100541.50;815286;54;20107;-78
2021/08/24 03:46:19;;;;;;;6.15;3.08;;;;;;;14.89;77.98;100542.00;815293;47;20034;-79
2021/08/24 03:47:05;;;;;;;6.03;2.80;;;;;;;14.90;78.10;100542.88;815631;54;20072;-79
2021/08/24 03:47:53;;;;;;;4.05;2.65;;;;;;;14.91;77.84;100547.25;815434;54;20069;-78
2021/08/24 03:48:39;;;;;;;4.90;2.70;;;;;;;14.93;78.03;100547.91;815189;54;20035;-78
2021/08/24 03:49:28;;;;;;;4.72;2.78;;;;;;;14.91;78.06;100544.56;815360;47;20034;-78
2021/08/24 03:50:14;;;;;;;4.68;2.55;;;;;;;14.93;77.63;100553.28;815097;54;20050;-79
2021/08/24 03:51:02;;;;;;;4.32;2.90;;;;;;;14.92;77.82;100546.25;815039;47;20061;-78
2021/08/24 03:51:48;;;;;;;5.05;2.80;;;;;;;14.91;78.00;100555.34;815181;47;20047;-78
2021/08/24 03:52:37;;;;;;;5.60;2.85;;;;;;;14.87;77.78;100548.56;815255;47;20034;-79
2021/08/24 03:53:23;;;;;;;4.22;2.67;;;;;;;14.88;77.88;100551.09;815180;47;20063;-79
2021/08/24 03:54:12;;;;;;;4.65;2.88;;;;;;;14.89;77.63;100551.94;815090;54;20035;-79
2021/08/24 03:54:58;;;;;;;5.10;3.08;;;;;;;14.87;77.78;100551.25;814755;46;20686;-78
2021/08/24 03:55:49;;;;;;;4.25;2.58;;;;;;;14.80;77.88;100546.53;814551;47;20035;-78
2021/08/24 03:56:35;;;;;;;4.90;3.38;;;;;;;14.78;78.21;100548.53;813999;47;20046;-79
2021/08/24 03:57:24;;;;;;;6.18;3.83;;;;;;;14.81;78.12;100558.13;814087;54;20042;-79
2021/08/24 03:58:12;;;;;;;5.65;3.42;;;;;;;14.78;78.08;100551.22;814347;54;20035;-79
2021/08/24 03:58:58;;;;;;;4.40;2.90;;;;;;;14.82;77.97;100557.13;813856;47;20060;-78
2021/08/24 03:59:47;;;;;;;5.32;3.15;;;;;;;14.81;78.09;100552.75;814307;54;20086;-79
2021/08/24 04:00:33;;;;;;;4.80;2.88;;;;;;;14.84;77.78;100559.66;814492;54;20146;-80
2021/08/24 04:01:21;;;;;;;5.57;3.50;;;;;;;14.79;77.96;100558.28;814157;47;20026;-78